モスクワ/シェレメーチエヴォ の空港の天気 - METARとTAF

シェレメーチエヴォ国際空港(モスクワ) ( UUEE / SVO ) - ロシア モスクワ
飛行場実況気象(Metar)
観測時間10/23 16:00 MSK (10/23 13:00 UTC)
風向・風速北西 3m/s
視程10km以上
天気現象
全天の8割程度の雲 雲底高度 980m
気温0℃
湿度80%
気圧1022hPa
METARUUEE 231300Z 31003MPS 9999 BKN032 00/M03 Q1022 R24R/190057 R24L/190057 NOSIG
過去の天気等 Google飛行場航空写真 Wunderground天気予報

過去48時間のMETAR

飛行場予報(TAF)
発表時間: 10/23 13:59 MSK (10/23 10:59 UTC)
予報対象時間: 23日15時 MSK ~ 24日15時 MSK
風向・風速北北西 6m/s
視程9,000m
全天の8割程度の雲 雲底高度 300m
23日15時 MSK ~ 23日21時 MSK に一時的に
視程3,000m
天気現象弱い雪
全天の4割程度の雲 雲底高度 150m
23日21時 MSK ~ 23日23時 MSK に徐々に
風向・風速不定 1m/s
24日3時 MSK ~ 24日9時 MSK に一時的に
視程1,000m
天気現象弱い雪 もや
全天の4割程度の雲 雲底高度 60m
全天を覆う雲 雲底高度 180m
24日9時 MSK ~ 24日11時 MSK に徐々に
風向・風速北 5m/s
TAF UUEE 231059Z 2312/2412 34006MPS 9000 BKN010 TX01/2312Z TNM03/2403Z
TEMPO 2312/2318 3000 -SN SCT005
BECMG 2318/2320 VRB01MPS
TEMPO 2400/2406 1000 -SN BR SCT002 OVC006
BECMG 2406/2408 36005MPS